Terminal Aerodrome Forecast
Issued by NWS Chicago, IL

Home | Current Version | Previous Version | Graphics & Text | Print | Product List | Glossary On
Versions: 1 2 3 4 5 6 7 8 9 10 11 12 13 14 15 16 17 18 19 20 21 22 23 24 25
899
FTUS43 KLOT 112327
TAFRFD
TAF
KRFD 112327Z 1200/1224 00000KT P6SM FEW150 SCT250
     FM120200 25007KT P6SM BKN100
     FM120900 27013KT P6SM -SN BKN030
     FM121500 30014G20KT P6SM SCT030 BKN040
     FM121900 31020G29KT P6SM SCT050=

USA.gov is the U.S. government's official web portal to all federal, state and local government web resources and services.